createdAt,value
2022-11-24T01:12:32.128Z,1011.15
2022-11-24T01:41:25.961Z,1011.51
2022-11-24T02:10:14.822Z,1011.38
2022-11-24T02:39:04.825Z,1011.35
2022-11-24T03:07:55.008Z,1011.58
2022-11-24T03:36:23.790Z,1011.69
2022-11-24T04:05:03.025Z,1011.77
2022-11-24T04:33:38.631Z,1012.06
2022-11-24T05:02:14.940Z,1012.18
2022-11-24T05:30:52.774Z,1012.01
2022-11-24T05:59:39.352Z,1013.03
2022-11-24T06:28:04.273Z,1013.03
2022-11-24T06:56:47.291Z,1013.43
2022-11-24T07:25:26.140Z,1013.85
2022-11-24T07:54:09.883Z,1014.01
2022-11-24T08:22:38.473Z,1014.42
2022-11-24T08:51:17.102Z,1014.44
2022-11-24T09:49:55.547Z,1015.29
2022-11-24T10:18:31.616Z,1015.41
2022-11-24T10:47:26.750Z,1015.41
2022-11-24T11:16:09.328Z,1015.53
2022-11-24T11:44:45.541Z,1015.55
2022-11-24T12:13:15.139Z,1015.57
2022-11-24T12:41:46.017Z,1015.65
2022-11-24T13:10:10.386Z,1015.45
2022-11-24T13:38:55.592Z,1015.44
2022-11-24T14:35:12.728Z,1015.34
2022-11-24T15:03:33.729Z,1015.15
2022-11-24T16:31:31.504Z,1015.48
2022-11-24T16:59:40.554Z,1015.42
2022-11-24T17:27:46.321Z,1015.75
2022-11-24T17:56:19.572Z,1015.46
2022-11-24T18:24:40.734Z,1015.44
2022-11-24T18:52:55.177Z,1015.42
2022-11-24T19:21:20.849Z,1015.32
2022-11-24T19:49:41.741Z,1015.41
2022-11-24T20:18:10.162Z,1015.44
2022-11-24T20:46:31.128Z,1015.35
2022-11-24T21:15:01.851Z,1015.19
2022-11-24T21:43:30.247Z,1015.24
2022-11-24T22:11:51.390Z,1015.23
2022-11-24T22:40:30.578Z,1015.58
2022-11-24T23:09:13.743Z,1015.66
2022-11-24T23:38:08.270Z,1015.51
